createdAt,value
2023-05-15T00:00:27.724Z,6.32
2023-05-15T00:02:57.104Z,7.03
2023-05-15T00:05:24.645Z,11.98
2023-05-15T00:07:52.077Z,11.55
2023-05-15T00:10:19.374Z,10.80
2023-05-15T00:12:46.616Z,11.07
2023-05-15T00:15:13.912Z,10.65
2023-05-15T00:17:41.227Z,9.05
2023-05-15T00:20:09.723Z,11.15
2023-05-15T00:22:37.018Z,9.85
2023-05-15T00:25:04.588Z,17.58
2023-05-15T00:27:31.813Z,8.48
2023-05-15T00:29:59.055Z,13.95
2023-05-15T00:32:26.354Z,10.50
2023-05-15T00:34:53.584Z,13.93
2023-05-15T00:37:20.851Z,12.02
2023-05-15T00:39:48.385Z,9.35
2023-05-15T00:42:17.365Z,10.52
2023-05-15T00:44:45.704Z,12.63
2023-05-15T00:47:14.280Z,12.75
2023-05-15T00:49:42.801Z,12.40
2023-05-15T00:52:10.850Z,10.05
2023-05-15T00:54:38.093Z,11.82
2023-05-15T00:57:07.139Z,13.43
2023-05-15T00:59:35.030Z,14.85
2023-05-15T01:02:02.425Z,13.85
2023-05-15T01:04:29.975Z,19.42
2023-05-15T01:06:57.312Z,14.95
2023-05-15T01:09:25.534Z,22.17
2023-05-15T01:11:55.068Z,17.30
2023-05-15T01:14:22.670Z,20.02
2023-05-15T01:16:50.019Z,20.02
2023-05-15T01:19:17.729Z,20.20
2023-05-15T01:22:01.025Z,16.25
2023-05-15T01:24:38.015Z,18.25
2023-05-15T01:27:34.655Z,17.10
2023-05-15T01:30:12.560Z,17.88
2023-05-15T01:33:04.435Z,19.27
2023-05-15T01:35:48.872Z,15.32
2023-05-15T01:38:42.491Z,23.10
2023-05-15T01:41:14.496Z,20.98
2023-05-15T01:43:45.332Z,21.48
2023-05-15T01:46:19.970Z,23.73
2023-05-15T01:48:49.704Z,23.85
2023-05-15T01:51:18.896Z,24.05
2023-05-15T01:53:47.601Z,24.88
2023-05-15T01:56:16.213Z,24.55
2023-05-15T01:58:44.425Z,29.85
2023-05-15T02:01:13.146Z,32.05
2023-05-15T02:03:41.303Z,33.70
2023-05-15T02:06:09.569Z,36.80
2023-05-15T02:08:37.364Z,33.58
2023-05-15T02:11:05.552Z,35.42
2023-05-15T02:13:33.949Z,45.22
2023-05-15T02:16:01.438Z,40.15
2023-05-15T02:18:29.114Z,36.88
2023-05-15T02:21:00.950Z,35.90
2023-05-15T02:23:28.508Z,46.60
2023-05-15T02:26:33.992Z,40.25
2023-05-15T02:29:20.132Z,46.25
2023-05-15T02:32:05.801Z,50.08
2023-05-15T02:34:45.635Z,39.78
2023-05-15T02:37:18.284Z,40.58
2023-05-15T02:39:46.624Z,46.88
2023-05-15T02:42:15.698Z,38.63
2023-05-15T02:44:44.125Z,44.33
2023-05-15T02:47:11.861Z,39.20
2023-05-15T02:49:39.995Z,35.13
2023-05-15T02:52:07.381Z,35.75
2023-05-15T02:54:34.678Z,32.15
2023-05-15T02:57:01.853Z,35.78
2023-05-15T02:59:29.257Z,34.70
2023-05-15T03:01:56.432Z,39.33
2023-05-15T03:04:23.752Z,32.95
2023-05-15T03:06:51.050Z,31.95
2023-05-15T03:09:18.261Z,29.58
2023-05-15T03:11:45.460Z,35.95
2023-05-15T03:14:12.752Z,35.83
2023-05-15T03:16:40.037Z,36.35
2023-05-15T03:19:07.422Z,28.00
2023-05-15T03:21:35.067Z,34.33
2023-05-15T03:24:02.424Z,31.45
2023-05-15T03:26:29.662Z,35.20
2023-05-15T03:28:58.205Z,36.42
2023-05-15T03:31:25.591Z,37.22
2023-05-15T03:33:53.109Z,38.70
2023-05-15T03:36:20.352Z,40.13
2023-05-15T03:38:47.577Z,41.00
2023-05-15T03:41:14.834Z,40.28
2023-05-15T03:43:42.095Z,39.63
2023-05-15T03:46:09.357Z,37.70
2023-05-15T03:48:36.610Z,37.20
2023-05-15T03:51:06.540Z,44.47
2023-05-15T03:53:33.863Z,40.05
2023-05-15T03:56:01.126Z,39.55
2023-05-15T03:58:28.311Z,37.88
2023-05-15T04:00:55.574Z,53.42
2023-05-15T04:03:22.936Z,39.17
2023-05-15T04:05:51.914Z,38.88
2023-05-15T04:08:19.119Z,38.75
2023-05-15T04:10:46.381Z,42.13
2023-05-15T04:13:13.635Z,37.15
2023-05-15T04:15:41.009Z,37.45
2023-05-15T04:18:11.521Z,36.75
2023-05-15T04:20:44.539Z,42.40
2023-05-15T04:23:14.473Z,38.90
2023-05-15T04:25:46.852Z,43.22
2023-05-15T04:28:16.056Z,41.00
2023-05-15T04:30:44.783Z,39.78
2023-05-15T04:33:22.776Z,38.20
2023-05-15T04:35:51.053Z,48.20
2023-05-15T04:38:18.647Z,43.67
2023-05-15T04:40:46.675Z,40.20
2023-05-15T04:43:13.886Z,38.58
2023-05-15T04:45:41.357Z,41.50
2023-05-15T04:48:08.817Z,42.72
2023-05-15T04:50:36.857Z,38.30
2023-05-15T04:53:04.267Z,42.50
2023-05-15T04:55:32.395Z,44.15
2023-05-15T04:58:00.906Z,41.95
2023-05-15T05:00:29.032Z,41.33
2023-05-15T05:02:56.519Z,48.95
2023-05-15T05:05:24.104Z,44.97
2023-05-15T05:07:52.048Z,43.40
2023-05-15T05:10:19.384Z,47.65
2023-05-15T05:12:58.236Z,46.50
2023-05-15T05:15:28.468Z,43.70
2023-05-15T05:17:55.878Z,51.10
2023-05-15T05:20:23.215Z,46.95
2023-05-15T05:22:50.657Z,49.72
2023-05-15T05:25:18.043Z,53.35
2023-05-15T05:27:45.406Z,55.40
2023-05-15T05:30:12.976Z,55.80
2023-05-15T05:32:40.256Z,53.53
2023-05-15T05:35:07.963Z,45.40
2023-05-15T05:37:35.396Z,54.67
2023-05-15T05:40:02.782Z,45.53
2023-05-15T05:42:30.033Z,42.90
2023-05-15T05:44:57.381Z,36.67
2023-05-15T05:47:24.675Z,35.83
2023-05-15T05:49:52.510Z,31.05
2023-05-15T05:52:19.816Z,31.80
2023-05-15T05:54:48.151Z,30.80
2023-05-15T05:57:15.608Z,29.13
2023-05-15T05:59:43.029Z,32.22
2023-05-15T06:02:11.310Z,31.25
2023-05-15T06:04:38.707Z,30.17
2023-05-15T06:07:05.997Z,35.33
2023-05-15T06:09:33.255Z,28.38
2023-05-15T06:12:00.903Z,34.50
2023-05-15T06:14:28.245Z,33.88
2023-05-15T06:16:55.513Z,30.05
2023-05-15T06:19:22.970Z,36.78
2023-05-15T06:21:50.332Z,31.30
2023-05-15T06:24:17.610Z,32.25
2023-05-15T06:26:45.154Z,33.60
2023-05-15T06:29:12.365Z,32.03
2023-05-15T06:31:39.623Z,37.17
2023-05-15T06:34:06.955Z,29.48
2023-05-15T06:36:34.469Z,29.52
2023-05-15T06:39:01.764Z,35.92
2023-05-15T06:41:29.179Z,28.42
2023-05-15T06:43:56.476Z,30.50
2023-05-15T06:46:23.911Z,33.85
2023-05-15T06:48:51.209Z,38.42
2023-05-15T06:51:18.422Z,35.33
2023-05-15T06:53:45.598Z,39.55
2023-05-15T06:56:12.840Z,40.90
2023-05-15T06:58:40.137Z,40.25
2023-05-15T07:01:09.492Z,38.78
2023-05-15T07:03:36.726Z,42.70
2023-05-15T07:06:04.228Z,44.65
2023-05-15T07:08:31.455Z,39.75
2023-05-15T07:10:58.697Z,41.03
2023-05-15T07:13:25.923Z,43.30
2023-05-15T07:15:53.275Z,57.40
2023-05-15T07:18:20.539Z,45.33
2023-05-15T07:20:48.004Z,45.13
2023-05-15T07:23:16.169Z,49.42
2023-05-15T07:25:44.189Z,42.90
2023-05-15T07:28:12.493Z,45.60
2023-05-15T07:30:39.756Z,44.63
2023-05-15T07:33:07.202Z,45.58
2023-05-15T07:35:34.483Z,42.33
2023-05-15T07:38:01.954Z,47.22
2023-05-15T07:40:29.261Z,50.70
2023-05-15T07:42:56.675Z,40.00
2023-05-15T07:45:24.123Z,41.67
2023-05-15T07:47:51.828Z,41.33
2023-05-15T07:50:19.102Z,37.92
2023-05-15T07:52:46.529Z,41.75
2023-05-15T07:55:13.856Z,40.08
2023-05-15T07:57:41.148Z,42.10
2023-05-15T08:00:12.537Z,44.47
2023-05-15T08:02:40.765Z,39.30
2023-05-15T08:05:08.424Z,50.42
2023-05-15T08:07:35.982Z,41.58
2023-05-15T08:10:06.154Z,42.15
2023-05-15T08:12:34.004Z,41.80
2023-05-15T08:15:01.485Z,41.08
2023-05-15T08:17:28.839Z,35.80
2023-05-15T08:19:56.535Z,38.30
2023-05-15T08:22:23.786Z,43.95
2023-05-15T08:24:51.048Z,47.47
2023-05-15T08:27:18.332Z,41.10
2023-05-15T08:29:45.993Z,40.35
2023-05-15T08:32:13.402Z,46.25
2023-05-15T08:34:40.718Z,43.53
2023-05-15T08:37:07.976Z,42.47
2023-05-15T08:39:35.288Z,40.88
2023-05-15T08:42:19.876Z,37.33
2023-05-15T08:44:48.001Z,32.85
2023-05-15T08:47:15.962Z,28.75
2023-05-15T08:50:01.929Z,35.15
2023-05-15T08:52:29.333Z,33.45
2023-05-15T08:54:57.874Z,39.63
2023-05-15T08:57:26.900Z,38.30
2023-05-15T08:59:55.175Z,32.50
2023-05-15T09:02:25.392Z,37.42
2023-05-15T09:04:52.810Z,30.17
2023-05-15T09:07:21.026Z,29.45
2023-05-15T09:09:48.648Z,31.90
2023-05-15T09:12:16.452Z,30.80
2023-05-15T09:14:44.293Z,32.63
2023-05-15T09:17:11.915Z,30.92
2023-05-15T09:19:40.449Z,30.73
2023-05-15T09:22:23.270Z,31.95
2023-05-15T09:24:53.159Z,32.78
2023-05-15T09:27:20.759Z,25.63
2023-05-15T09:29:48.825Z,26.27
2023-05-15T09:32:18.564Z,24.88
2023-05-15T09:34:46.408Z,25.20
2023-05-15T09:37:30.306Z,26.73
2023-05-15T09:40:11.059Z,29.17
2023-05-15T09:42:39.457Z,31.48
2023-05-15T09:45:17.513Z,27.75
2023-05-15T09:47:45.800Z,23.88
2023-05-15T09:50:13.349Z,23.00
2023-05-15T09:52:40.715Z,24.00
2023-05-15T09:55:09.677Z,26.25
2023-05-15T09:57:37.975Z,24.50
2023-05-15T10:00:11.762Z,21.15
2023-05-15T10:02:41.558Z,24.75
2023-05-15T10:05:11.569Z,20.48
2023-05-15T10:07:39.220Z,21.13
2023-05-15T10:10:06.987Z,19.27
2023-05-15T10:12:36.595Z,21.30
2023-05-15T10:15:05.263Z,24.95
2023-05-15T10:17:36.157Z,21.33
2023-05-15T10:20:07.143Z,26.63
2023-05-15T10:22:37.840Z,21.70
2023-05-15T10:25:26.304Z,21.00
2023-05-15T10:27:54.743Z,16.10
2023-05-15T10:30:24.294Z,19.40
2023-05-15T10:32:52.019Z,15.70
2023-05-15T10:35:19.537Z,16.23
2023-05-15T10:37:48.579Z,18.80
2023-05-15T10:40:17.289Z,18.05
2023-05-15T10:42:47.019Z,17.83
2023-05-15T10:45:14.865Z,23.33
2023-05-15T10:47:44.568Z,18.65
2023-05-15T10:50:13.477Z,19.33
2023-05-15T10:52:41.628Z,21.05
2023-05-15T10:55:13.886Z,18.70
2023-05-15T10:57:41.463Z,14.90
2023-05-15T11:00:24.708Z,19.42
2023-05-15T11:02:55.313Z,20.73
2023-05-15T11:05:23.615Z,14.73
2023-05-15T11:08:29.762Z,15.95
2023-05-15T11:10:57.221Z,21.02
2023-05-15T11:13:24.454Z,16.15
2023-05-15T11:15:51.877Z,14.73
2023-05-15T11:18:20.290Z,19.33
2023-05-15T11:20:51.873Z,13.90
2023-05-15T11:23:23.316Z,17.67
2023-05-15T11:25:57.012Z,15.50
2023-05-15T11:28:25.872Z,17.05
2023-05-15T11:30:59.339Z,16.20
2023-05-15T11:33:29.964Z,13.25
2023-05-15T11:35:59.085Z,15.70
2023-05-15T11:38:27.227Z,13.40
2023-05-15T11:41:03.567Z,12.98
2023-05-15T11:43:32.770Z,13.73
2023-05-15T11:46:08.468Z,13.70
2023-05-15T11:48:41.760Z,16.67
2023-05-15T11:51:26.375Z,9.48
2023-05-15T11:53:55.282Z,10.02
2023-05-15T11:56:28.502Z,12.48
2023-05-15T11:58:57.874Z,11.95
2023-05-15T12:01:25.694Z,13.98
2023-05-15T12:03:54.344Z,11.77
2023-05-15T12:06:22.929Z,11.68
2023-05-15T12:08:53.852Z,11.02
2023-05-15T12:11:24.900Z,9.88
2023-05-15T12:13:55.461Z,11.07
2023-05-15T12:16:26.976Z,13.10
2023-05-15T12:18:56.461Z,11.40
2023-05-15T12:21:23.762Z,10.95
2023-05-15T12:24:07.030Z,10.80
2023-05-15T12:26:36.129Z,9.80
2023-05-15T12:29:04.342Z,20.70
2023-05-15T12:31:35.579Z,13.57
2023-05-15T12:34:03.418Z,13.50
2023-05-15T12:36:31.099Z,16.70
2023-05-15T12:39:04.490Z,12.27
2023-05-15T12:41:31.939Z,12.18
2023-05-15T12:43:59.585Z,11.93
2023-05-15T12:46:31.679Z,19.00
2023-05-15T12:48:59.780Z,12.73
2023-05-15T12:51:29.693Z,15.35
2023-05-15T12:53:58.284Z,9.63
2023-05-15T12:56:26.341Z,10.80
2023-05-15T12:58:54.657Z,7.47
2023-05-15T13:01:22.225Z,12.80
2023-05-15T13:03:50.008Z,10.93
2023-05-15T13:06:17.428Z,10.38
2023-05-15T13:08:45.860Z,14.95
2023-05-15T13:11:18.166Z,10.80
2023-05-15T13:13:47.969Z,9.48
2023-05-15T13:16:24.552Z,10.93
2023-05-15T13:18:53.113Z,8.88
2023-05-15T13:21:20.382Z,10.60
2023-05-15T13:23:47.753Z,9.45
2023-05-15T13:26:15.199Z,13.43
2023-05-15T13:28:42.492Z,8.82
2023-05-15T13:31:09.948Z,12.85
2023-05-15T13:33:37.554Z,9.82
2023-05-15T13:36:05.240Z,8.38
2023-05-15T13:38:33.337Z,14.90
2023-05-15T13:41:00.704Z,12.00
2023-05-15T13:43:27.960Z,8.88
2023-05-15T13:45:55.389Z,9.70
2023-05-15T13:48:22.811Z,10.73
2023-05-15T13:50:50.064Z,13.95
2023-05-15T13:53:17.298Z,19.65
2023-05-15T13:55:45.841Z,11.23
2023-05-15T13:58:13.678Z,7.45
2023-05-15T14:00:43.176Z,10.35
2023-05-15T14:03:12.712Z,7.60
2023-05-15T14:05:42.344Z,13.10
2023-05-15T14:08:09.874Z,6.03
2023-05-15T14:10:37.665Z,7.45
2023-05-15T14:13:05.035Z,8.75
2023-05-15T14:15:32.288Z,7.97
2023-05-15T14:17:59.566Z,9.88
2023-05-15T14:20:27.409Z,11.60
2023-05-15T14:22:54.858Z,19.38
2023-05-15T14:25:22.376Z,13.50
2023-05-15T14:27:49.701Z,12.52
2023-05-15T14:30:16.931Z,14.65
2023-05-15T14:32:44.207Z,15.45
2023-05-15T14:35:11.449Z,14.95
2023-05-15T14:37:38.853Z,14.05
2023-05-15T14:40:07.979Z,21.48
2023-05-15T14:42:35.318Z,22.17
2023-05-15T14:45:02.764Z,16.35
2023-05-15T14:47:30.455Z,16.48
2023-05-15T14:49:57.716Z,16.98
2023-05-15T14:52:24.984Z,14.73
2023-05-15T14:55:04.948Z,16.00
2023-05-15T14:57:35.782Z,14.57
2023-05-15T15:00:05.876Z,12.48
2023-05-15T15:02:48.676Z,16.50
2023-05-15T15:05:16.089Z,14.10
2023-05-15T15:08:04.697Z,18.23
2023-05-15T15:10:37.028Z,13.98
2023-05-15T15:13:06.617Z,13.00
2023-05-15T15:15:35.078Z,12.15
2023-05-15T15:18:02.534Z,11.23
2023-05-15T15:20:29.777Z,13.63
2023-05-15T15:22:57.117Z,10.68
2023-05-15T15:25:24.609Z,10.68
2023-05-15T15:27:52.411Z,11.23
2023-05-15T15:30:19.871Z,9.10
2023-05-15T15:32:47.269Z,8.80
2023-05-15T15:35:14.921Z,7.93
2023-05-15T15:37:42.195Z,8.75
2023-05-15T15:40:09.722Z,9.95
2023-05-15T15:42:36.987Z,9.68
2023-05-15T15:45:04.809Z,11.75
2023-05-15T15:47:32.311Z,10.95
2023-05-15T15:50:00.024Z,12.13
2023-05-15T15:52:27.861Z,13.27
2023-05-15T15:54:55.444Z,12.60
2023-05-15T15:57:23.205Z,11.57
2023-05-15T15:59:50.663Z,11.10
2023-05-15T16:02:18.107Z,12.15
2023-05-15T16:04:45.482Z,12.68
2023-05-15T16:07:12.956Z,11.15
2023-05-15T16:09:40.289Z,11.45
2023-05-15T16:12:07.765Z,11.30
2023-05-15T16:14:35.101Z,12.23
2023-05-15T16:17:05.634Z,14.00
2023-05-15T16:19:37.688Z,15.50
2023-05-15T16:22:05.065Z,17.02
2023-05-15T16:24:32.604Z,17.98
2023-05-15T16:27:00.020Z,18.52
2023-05-15T16:29:28.324Z,14.48
2023-05-15T16:31:57.134Z,13.02
2023-05-15T16:34:25.365Z,15.00
2023-05-15T16:36:52.576Z,16.23
2023-05-15T16:39:19.809Z,18.90
2023-05-15T16:41:47.252Z,18.27
2023-05-15T16:44:15.187Z,14.95
2023-05-15T16:46:42.605Z,17.50
2023-05-15T16:49:10.014Z,17.60
2023-05-15T16:51:37.542Z,18.75
2023-05-15T16:54:05.034Z,18.08
2023-05-15T16:56:32.323Z,20.98
2023-05-15T16:58:59.547Z,13.65
2023-05-15T17:01:26.928Z,18.02
2023-05-15T17:03:54.388Z,18.42
2023-05-15T17:06:21.781Z,19.83
2023-05-15T17:08:49.146Z,20.30
2023-05-15T17:11:16.512Z,16.77
2023-05-15T17:13:43.913Z,18.42
2023-05-15T17:16:11.443Z,20.40
2023-05-15T17:18:39.987Z,22.63
2023-05-15T17:21:07.479Z,23.10
2023-05-15T17:23:35.109Z,24.27
2023-05-15T17:26:02.355Z,22.77
2023-05-15T17:28:29.645Z,23.42
2023-05-15T17:30:56.897Z,24.25
2023-05-15T17:33:24.211Z,20.63
2023-05-15T17:35:52.479Z,23.58
2023-05-15T17:38:19.799Z,21.35
2023-05-15T17:40:48.265Z,24.50
2023-05-15T17:43:15.963Z,22.02
2023-05-15T17:45:43.297Z,20.20
2023-05-15T17:48:10.652Z,22.60
2023-05-15T17:50:39.009Z,25.67
2023-05-15T17:53:06.350Z,24.08
2023-05-15T17:55:33.626Z,25.17
2023-05-15T17:58:00.857Z,24.25
2023-05-15T18:00:28.238Z,24.88
2023-05-15T18:02:56.261Z,23.73
2023-05-15T18:05:24.413Z,25.95
2023-05-15T18:07:59.405Z,25.63
2023-05-15T18:10:26.921Z,24.70
2023-05-15T18:12:56.978Z,26.25
2023-05-15T18:15:24.377Z,28.13
2023-05-15T18:17:51.952Z,29.27
2023-05-15T18:20:19.445Z,27.05
2023-05-15T18:22:47.598Z,25.40
2023-05-15T18:25:15.879Z,26.23
2023-05-15T18:27:43.467Z,19.77
2023-05-15T18:30:11.690Z,20.42
2023-05-15T18:32:39.274Z,19.65
2023-05-15T18:35:09.127Z,17.27
2023-05-15T18:37:36.857Z,19.48
2023-05-15T18:40:05.351Z,16.38
2023-05-15T18:42:33.041Z,15.50
2023-05-15T18:45:00.855Z,15.70
2023-05-15T18:47:28.147Z,17.92
2023-05-15T18:49:55.694Z,11.77
2023-05-15T18:52:26.940Z,15.68
2023-05-15T18:54:54.302Z,11.88
2023-05-15T18:57:21.587Z,19.55
2023-05-15T18:59:48.980Z,12.77
2023-05-15T19:02:16.619Z,11.10
2023-05-15T19:04:44.138Z,11.43
2023-05-15T19:07:12.002Z,12.95
2023-05-15T19:09:40.017Z,13.52
2023-05-15T19:12:08.163Z,8.23
2023-05-15T19:14:39.003Z,9.93
2023-05-15T19:17:06.679Z,8.75
2023-05-15T19:19:34.338Z,11.82
2023-05-15T19:22:01.704Z,8.57
2023-05-15T19:24:29.985Z,8.70
2023-05-15T19:26:58.802Z,14.35
2023-05-15T19:29:26.144Z,7.10
2023-05-15T19:31:56.106Z,9.60
2023-05-15T19:34:23.594Z,8.05
2023-05-15T19:36:51.088Z,11.32
2023-05-15T19:39:18.920Z,9.02
2023-05-15T19:41:50.779Z,10.57
2023-05-15T19:44:18.485Z,8.23
2023-05-15T19:46:48.242Z,7.28
2023-05-15T19:49:15.727Z,7.72
2023-05-15T19:51:43.298Z,11.68
2023-05-15T19:54:11.291Z,10.68
2023-05-15T19:56:39.210Z,8.45
2023-05-15T19:59:06.815Z,8.93
2023-05-15T20:01:34.216Z,7.45
2023-05-15T20:04:02.368Z,5.93
2023-05-15T20:06:29.906Z,6.65
2023-05-15T20:08:57.484Z,10.38
2023-05-15T20:11:24.950Z,7.45
2023-05-15T20:13:52.288Z,5.75
2023-05-15T20:16:21.812Z,7.00
2023-05-15T20:18:54.448Z,8.15
2023-05-15T20:21:22.132Z,5.63
2023-05-15T20:23:49.379Z,7.22
2023-05-15T20:26:16.650Z,6.95
2023-05-15T20:28:45.383Z,6.35
2023-05-15T20:31:12.974Z,5.47
2023-05-15T20:33:43.937Z,9.38
2023-05-15T20:36:11.313Z,5.13
2023-05-15T20:38:38.706Z,6.22
2023-05-15T20:41:06.274Z,5.90
2023-05-15T20:43:33.836Z,8.95
2023-05-15T20:46:01.687Z,5.70
2023-05-15T20:48:29.206Z,8.15
2023-05-15T20:50:56.615Z,4.93
2023-05-15T20:53:24.018Z,9.95
2023-05-15T20:55:51.395Z,4.97
2023-05-15T20:58:18.906Z,8.85
2023-05-15T21:00:46.202Z,8.10
2023-05-15T21:03:13.601Z,4.47
2023-05-15T21:05:40.938Z,3.33
2023-05-15T21:08:08.326Z,4.18
2023-05-15T21:10:35.821Z,5.28
2023-05-15T21:13:03.524Z,3.75
2023-05-15T21:15:30.986Z,8.68
2023-05-15T21:17:58.519Z,6.25
2023-05-15T21:20:27.141Z,4.57
2023-05-15T21:22:54.753Z,6.50
2023-05-15T21:25:22.405Z,5.90
2023-05-15T21:27:49.844Z,7.90
2023-05-15T21:30:17.228Z,7.05
2023-05-15T21:32:44.758Z,6.82
2023-05-15T21:35:12.116Z,5.65
2023-05-15T21:37:39.586Z,4.50
2023-05-15T21:40:07.450Z,6.75
2023-05-15T21:42:34.819Z,5.82
2023-05-15T21:45:02.901Z,7.57
2023-05-15T21:47:31.662Z,6.45
2023-05-15T21:49:59.103Z,5.55
2023-05-15T21:52:26.463Z,7.75
2023-05-15T21:54:53.729Z,7.75
2023-05-15T21:57:21.752Z,6.03
2023-05-15T21:59:49.146Z,6.95
2023-05-15T22:02:16.578Z,7.25
2023-05-15T22:04:44.309Z,5.90
2023-05-15T22:07:14.454Z,14.40
2023-05-15T22:09:44.484Z,8.60
2023-05-15T22:12:11.915Z,11.57
2023-05-15T22:14:46.948Z,6.85
2023-05-15T22:17:27.405Z,8.02
2023-05-15T22:20:07.366Z,8.30
2023-05-15T22:22:35.902Z,8.82
2023-05-15T22:25:03.503Z,7.85
2023-05-15T22:27:30.764Z,8.15
2023-05-15T22:29:58.038Z,8.93
2023-05-15T22:32:26.014Z,7.72
2023-05-15T22:34:53.525Z,7.13
2023-05-15T22:37:21.819Z,5.30
2023-05-15T22:39:49.032Z,11.07
2023-05-15T22:42:16.583Z,8.73
2023-05-15T22:44:43.775Z,7.47
2023-05-15T22:47:11.482Z,7.65
2023-05-15T22:49:38.855Z,12.15
2023-05-15T22:52:07.027Z,10.38
2023-05-15T22:54:34.228Z,7.10
2023-05-15T22:57:01.423Z,7.55
2023-05-15T22:59:28.761Z,8.05
2023-05-15T23:01:56.280Z,7.55
2023-05-15T23:04:23.625Z,8.07
2023-05-15T23:06:51.007Z,6.03
2023-05-15T23:09:18.258Z,10.07
2023-05-15T23:11:45.438Z,6.25
2023-05-15T23:14:15.806Z,6.03
2023-05-15T23:16:44.212Z,9.45
2023-05-15T23:19:11.514Z,8.35
2023-05-15T23:21:39.016Z,8.30
2023-05-15T23:24:06.516Z,6.22
2023-05-15T23:26:33.839Z,7.20
2023-05-15T23:29:01.115Z,4.05
2023-05-15T23:31:28.425Z,8.43
2023-05-15T23:33:55.783Z,5.50
2023-05-15T23:36:23.057Z,4.53
2023-05-15T23:38:50.741Z,7.40
2023-05-15T23:41:17.922Z,6.78
2023-05-15T23:43:45.374Z,5.25
2023-05-15T23:46:12.595Z,4.57
2023-05-15T23:48:39.841Z,4.13
2023-05-15T23:51:07.076Z,5.43
2023-05-15T23:53:34.590Z,5.38
2023-05-15T23:56:02.083Z,3.20
2023-05-15T23:58:29.358Z,5.65
